sensor_id;sensor_type;location;lat;lon;timestamp;P1;durP1;ratioP1;P2;durP2;ratioP2
66342;SDS011;53144;51.524;5.080;2023-04-19T00:04:27;12.25;;;9.93;;
66342;SDS011;53144;51.524;5.080;2023-04-19T00:06:52;13.75;;;11.98;;
66342;SDS011;53144;51.524;5.080;2023-04-19T00:11:43;13.13;;;11.45;;
66342;SDS011;53144;51.524;5.080;2023-04-19T00:16:33;14.73;;;11.93;;
66342;SDS011;53144;51.524;5.080;2023-04-19T00:18:59;16.13;;;11.68;;
66342;SDS011;53144;51.524;5.080;2023-04-19T00:21:25;15.05;;;11.55;;
66342;SDS011;53144;51.524;5.080;2023-04-19T00:23:51;16.83;;;11.98;;
66342;SDS011;53144;51.524;5.080;2023-04-19T00:26:18;16.42;;;12.20;;
66342;SDS011;53144;51.524;5.080;2023-04-19T00:28:43;16.45;;;12.20;;
66342;SDS011;53144;51.524;5.080;2023-04-19T00:31:09;17.67;;;12.07;;
66342;SDS011;53144;51.524;5.080;2023-04-19T00:33:34;14.50;;;12.00;;
66342;SDS011;53144;51.524;5.080;2023-04-19T00:38:25;15.90;;;11.38;;
66342;SDS011;53144;51.524;5.080;2023-04-19T00:43:16;13.98;;;11.02;;
66342;SDS011;53144;51.524;5.080;2023-04-19T00:45:43;14.30;;;10.93;;
66342;SDS011;53144;51.524;5.080;2023-04-19T00:48:09;14.75;;;11.75;;
66342;SDS011;53144;51.524;5.080;2023-04-19T00:50:36;15.57;;;11.48;;
66342;SDS011;53144;51.524;5.080;2023-04-19T00:53:01;22.23;;;11.38;;
66342;SDS011;53144;51.524;5.080;2023-04-19T00:55:27;15.05;;;11.95;;
66342;SDS011;53144;51.524;5.080;2023-04-19T01:00:18;12.90;;;11.18;;
66342;SDS011;53144;51.524;5.080;2023-04-19T01:02:44;15.65;;;10.75;;
66342;SDS011;53144;51.524;5.080;2023-04-19T01:07:35;16.15;;;10.68;;
66342;SDS011;53144;51.524;5.080;2023-04-19T01:12:26;13.23;;;11.20;;
66342;SDS011;53144;51.524;5.080;2023-04-19T01:17:17;14.02;;;11.85;;
66342;SDS011;53144;51.524;5.080;2023-04-19T01:19:43;13.40;;;11.75;;
66342;SDS011;53144;51.524;5.080;2023-04-19T01:22:08;16.27;;;12.45;;
66342;SDS011;53144;51.524;5.080;2023-04-19T01:26:59;13.75;;;10.98;;
66342;SDS011;53144;51.524;5.080;2023-04-19T01:29:26;15.38;;;11.88;;
66342;SDS011;53144;51.524;5.080;2023-04-19T01:31:51;13.65;;;11.02;;
66342;SDS011;53144;51.524;5.080;2023-04-19T01:36:47;14.52;;;11.85;;
66342;SDS011;53144;51.524;5.080;2023-04-19T01:39:12;15.35;;;12.00;;
66342;SDS011;53144;51.524;5.080;2023-04-19T01:44:03;14.68;;;11.48;;
66342;SDS011;53144;51.524;5.080;2023-04-19T01:46:28;15.70;;;11.65;;
66342;SDS011;53144;51.524;5.080;2023-04-19T01:48:54;16.20;;;11.80;;
66342;SDS011;53144;51.524;5.080;2023-04-19T01:51:19;14.77;;;11.95;;
66342;SDS011;53144;51.524;5.080;2023-04-19T01:53:46;20.05;;;12.32;;
66342;SDS011;53144;51.524;5.080;2023-04-19T01:56:16;15.90;;;12.20;;
66342;SDS011;53144;51.524;5.080;2023-04-19T01:58:42;14.05;;;11.13;;
66342;SDS011;53144;51.524;5.080;2023-04-19T02:01:07;13.48;;;11.10;;
66342;SDS011;53144;51.524;5.080;2023-04-19T02:03:36;16.00;;;11.95;;
66342;SDS011;53144;51.524;5.080;2023-04-19T02:08:27;15.32;;;10.55;;
66342;SDS011;53144;51.524;5.080;2023-04-19T02:10:52;14.23;;;11.18;;
66342;SDS011;53144;51.524;5.080;2023-04-19T02:15:43;15.43;;;10.98;;
66342;SDS011;53144;51.524;5.080;2023-04-19T02:20:35;17.07;;;11.60;;
66342;SDS011;53144;51.524;5.080;2023-04-19T02:23:01;17.13;;;11.38;;
66342;SDS011;53144;51.524;5.080;2023-04-19T02:27:51;18.95;;;11.02;;
66342;SDS011;53144;51.524;5.080;2023-04-19T02:32:43;19.45;;;12.63;;
66342;SDS011;53144;51.524;5.080;2023-04-19T02:37:33;17.00;;;11.18;;
66342;SDS011;53144;51.524;5.080;2023-04-19T02:42:24;19.08;;;11.98;;
66342;SDS011;53144;51.524;5.080;2023-04-19T02:44:49;14.73;;;9.45;;
66342;SDS011;53144;51.524;5.080;2023-04-19T02:47:15;19.48;;;13.13;;
66342;SDS011;53144;51.524;5.080;2023-04-19T02:52:06;18.77;;;12.82;;
66342;SDS011;53144;51.524;5.080;2023-04-19T02:56:58;17.05;;;11.95;;
66342;SDS011;53144;51.524;5.080;2023-04-19T03:01:48;16.90;;;11.95;;
66342;SDS011;53144;51.524;5.080;2023-04-19T03:06:40;15.90;;;11.77;;
66342;SDS011;53144;51.524;5.080;2023-04-19T03:09:08;15.52;;;12.20;;
66342;SDS011;53144;51.524;5.080;2023-04-19T03:14:00;19.25;;;12.38;;
66342;SDS011;53144;51.524;5.080;2023-04-19T03:18:51;16.63;;;12.02;;
66342;SDS011;53144;51.524;5.080;2023-04-19T03:23:42;14.63;;;11.15;;
66342;SDS011;53144;51.524;5.080;2023-04-19T03:28:33;15.63;;;11.38;;
66342;SDS011;53144;51.524;5.080;2023-04-19T03:33:24;15.20;;;11.48;;
66342;SDS011;53144;51.524;5.080;2023-04-19T03:38:15;15.23;;;10.82;;
66342;SDS011;53144;51.524;5.080;2023-04-19T03:43:06;15.60;;;10.90;;
66342;SDS011;53144;51.524;5.080;2023-04-19T03:47:57;15.70;;;9.63;;
66342;SDS011;53144;51.524;5.080;2023-04-19T03:50:22;18.35;;;11.02;;
66342;SDS011;53144;51.524;5.080;2023-04-19T03:55:13;13.88;;;10.55;;
66342;SDS011;53144;51.524;5.080;2023-04-19T03:57:38;14.85;;;11.27;;
66342;SDS011;53144;51.524;5.080;2023-04-19T04:02:31;13.80;;;10.23;;
66342;SDS011;53144;51.524;5.080;2023-04-19T04:04:57;12.90;;;10.18;;
66342;SDS011;53144;51.524;5.080;2023-04-19T04:09:48;14.68;;;10.48;;
66342;SDS011;53144;51.524;5.080;2023-04-19T04:14:39;13.95;;;10.13;;
66342;SDS011;53144;51.524;5.080;2023-04-19T04:19:30;13.98;;;10.77;;
66342;SDS011;53144;51.524;5.080;2023-04-19T04:24:21;15.52;;;10.50;;
66342;SDS011;53144;51.524;5.080;2023-04-19T04:29:13;14.02;;;9.20;;
66342;SDS011;53144;51.524;5.080;2023-04-19T04:34:04;13.70;;;10.02;;
66342;SDS011;53144;51.524;5.080;2023-04-19T04:38:55;12.30;;;9.73;;
66342;SDS011;53144;51.524;5.080;2023-04-19T04:43:46;11.88;;;9.23;;
66342;SDS011;53144;51.524;5.080;2023-04-19T04:46:15;11.93;;;9.65;;
66342;SDS011;53144;51.524;5.080;2023-04-19T04:48:40;14.95;;;9.77;;
66342;SDS011;53144;51.524;5.080;2023-04-19T04:53:31;10.25;;;8.23;;
66342;SDS011;53144;51.524;5.080;2023-04-19T04:58:22;13.85;;;9.18;;
66342;SDS011;53144;51.524;5.080;2023-04-19T05:03:13;12.23;;;9.10;;
66342;SDS011;53144;51.524;5.080;2023-04-19T05:08:04;10.35;;;8.70;;
66342;SDS011;53144;51.524;5.080;2023-04-19T05:12:55;11.32;;;8.50;;
66342;SDS011;53144;51.524;5.080;2023-04-19T05:17:46;11.15;;;7.68;;
66342;SDS011;53144;51.524;5.080;2023-04-19T05:22:37;11.07;;;7.63;;
66342;SDS011;53144;51.524;5.080;2023-04-19T05:25:03;13.90;;;8.13;;
66342;SDS011;53144;51.524;5.080;2023-04-19T05:27:29;12.10;;;7.10;;
66342;SDS011;53144;51.524;5.080;2023-04-19T05:29:55;11.45;;;6.88;;
66342;SDS011;53144;51.524;5.080;2023-04-19T05:34:45;8.55;;;7.10;;
66342;SDS011;53144;51.524;5.080;2023-04-19T05:39:36;7.32;;;5.50;;
66342;SDS011;53144;51.524;5.080;2023-04-19T05:44:27;9.10;;;6.07;;
66342;SDS011;53144;51.524;5.080;2023-04-19T05:49:17;11.60;;;6.22;;
66342;SDS011;53144;51.524;5.080;2023-04-19T05:54:08;8.73;;;6.82;;
66342;SDS011;53144;51.524;5.080;2023-04-19T05:56:36;9.60;;;6.13;;
66342;SDS011;53144;51.524;5.080;2023-04-19T05:59:02;7.43;;;6.35;;
66342;SDS011;53144;51.524;5.080;2023-04-19T06:03:53;8.82;;;5.80;;
66342;SDS011;53144;51.524;5.080;2023-04-19T06:06:20;9.48;;;6.65;;
66342;SDS011;53144;51.524;5.080;2023-04-19T06:08:46;8.68;;;5.43;;
66342;SDS011;53144;51.524;5.080;2023-04-19T06:11:11;8.05;;;5.97;;
66342;SDS011;53144;51.524;5.080;2023-04-19T06:13:36;9.32;;;6.30;;
66342;SDS011;53144;51.524;5.080;2023-04-19T06:18:27;8.30;;;5.85;;
66342;SDS011;53144;51.524;5.080;2023-04-19T06:23:18;8.05;;;5.85;;
66342;SDS011;53144;51.524;5.080;2023-04-19T06:28:09;8.02;;;5.95;;
66342;SDS011;53144;51.524;5.080;2023-04-19T06:33:00;8.23;;;6.00;;
66342;SDS011;53144;51.524;5.080;2023-04-19T06:37:51;7.65;;;5.68;;
66342;SDS011;53144;51.524;5.080;2023-04-19T06:42:41;8.43;;;6.03;;
66342;SDS011;53144;51.524;5.080;2023-04-19T06:45:07;7.60;;;5.57;;
66342;SDS011;53144;51.524;5.080;2023-04-19T06:49:58;11.93;;;6.10;;
66342;SDS011;53144;51.524;5.080;2023-04-19T06:54:49;7.43;;;5.78;;
66342;SDS011;53144;51.524;5.080;2023-04-19T06:59:41;6.90;;;5.47;;
66342;SDS011;53144;51.524;5.080;2023-04-19T07:04:32;7.40;;;5.28;;
66342;SDS011;53144;51.524;5.080;2023-04-19T07:06:57;10.55;;;6.25;;
66342;SDS011;53144;51.524;5.080;2023-04-19T07:11:48;7.05;;;4.90;;
66342;SDS011;53144;51.524;5.080;2023-04-19T07:14:15;7.40;;;5.43;;
66342;SDS011;53144;51.524;5.080;2023-04-19T07:16:43;7.80;;;5.32;;
66342;SDS011;53144;51.524;5.080;2023-04-19T07:21:34;11.27;;;5.70;;
66342;SDS011;53144;51.524;5.080;2023-04-19T07:26:25;8.25;;;5.30;;
66342;SDS011;53144;51.524;5.080;2023-04-19T07:31:16;9.13;;;5.22;;
66342;SDS011;53144;51.524;5.080;2023-04-19T07:33:42;6.28;;;5.25;;
66342;SDS011;53144;51.524;5.080;2023-04-19T07:38:33;8.13;;;4.82;;
66342;SDS011;53144;51.524;5.080;2023-04-19T07:43:24;8.05;;;4.72;;
66342;SDS011;53144;51.524;5.080;2023-04-19T07:45:51;10.35;;;5.60;;
66342;SDS011;53144;51.524;5.080;2023-04-19T07:50:42;7.32;;;4.90;;
66342;SDS011;53144;51.524;5.080;2023-04-19T07:55:32;8.15;;;4.50;;
66342;SDS011;53144;51.524;5.080;2023-04-19T08:00:24;9.18;;;5.22;;
66342;SDS011;53144;51.524;5.080;2023-04-19T08:05:15;7.00;;;5.20;;
66342;SDS011;53144;51.524;5.080;2023-04-19T08:07:44;8.98;;;5.00;;
66342;SDS011;53144;51.524;5.080;2023-04-19T08:12:35;7.95;;;4.88;;
66342;SDS011;53144;51.524;5.080;2023-04-19T08:17:27;7.28;;;5.03;;
66342;SDS011;53144;51.524;5.080;2023-04-19T08:22:18;8.57;;;5.07;;
66342;SDS011;53144;51.524;5.080;2023-04-19T08:24:45;9.70;;;4.82;;
66342;SDS011;53144;51.524;5.080;2023-04-19T08:29:36;7.75;;;4.60;;
66342;SDS011;53144;51.524;5.080;2023-04-19T08:32:03;7.05;;;4.72;;
66342;SDS011;53144;51.524;5.080;2023-04-19T08:34:29;8.82;;;5.05;;
66342;SDS011;53144;51.524;5.080;2023-04-19T08:39:20;5.82;;;3.97;;
66342;SDS011;53144;51.524;5.080;2023-04-19T08:44:12;8.18;;;4.72;;
66342;SDS011;53144;51.524;5.080;2023-04-19T08:46:38;22.27;;;4.93;;
66342;SDS011;53144;51.524;5.080;2023-04-19T08:49:05;9.70;;;5.07;;
66342;SDS011;53144;51.524;5.080;2023-04-19T08:51:32;5.45;;;3.78;;
66342;SDS011;53144;51.524;5.080;2023-04-19T08:53:58;6.47;;;4.57;;
66342;SDS011;53144;51.524;5.080;2023-04-19T08:56:26;6.30;;;5.05;;
66342;SDS011;53144;51.524;5.080;2023-04-19T09:01:17;6.70;;;4.60;;
66342;SDS011;53144;51.524;5.080;2023-04-19T09:03:43;8.02;;;5.15;;
66342;SDS011;53144;51.524;5.080;2023-04-19T09:06:12;7.97;;;4.97;;
66342;SDS011;53144;51.524;5.080;2023-04-19T09:11:06;9.77;;;4.32;;
66342;SDS011;53144;51.524;5.080;2023-04-19T09:13:32;8.05;;;4.80;;
66342;SDS011;53144;51.524;5.080;2023-04-19T09:18:26;5.28;;;4.00;;
66342;SDS011;53144;51.524;5.080;2023-04-19T09:23:24;5.88;;;4.55;;
66342;SDS011;53144;51.524;5.080;2023-04-19T09:25:57;7.78;;;4.38;;
66342;SDS011;53144;51.524;5.080;2023-04-19T09:28:25;5.55;;;3.97;;
66342;SDS011;53144;51.524;5.080;2023-04-19T09:30:51;5.30;;;4.22;;
66342;SDS011;53144;51.524;5.080;2023-04-19T09:35:59;5.47;;;3.22;;
66342;SDS011;53144;51.524;5.080;2023-04-19T09:38:25;6.50;;;3.80;;
66342;SDS011;53144;51.524;5.080;2023-04-19T09:43:23;6.07;;;3.58;;
66342;SDS011;53144;51.524;5.080;2023-04-19T09:45:49;4.43;;;3.28;;
66342;SDS011;53144;51.524;5.080;2023-04-19T09:50:54;4.10;;;3.45;;
66342;SDS011;53144;51.524;5.080;2023-04-19T09:53:24;6.10;;;3.33;;
66342;SDS011;53144;51.524;5.080;2023-04-19T09:55:51;7.75;;;3.40;;
66342;SDS011;53144;51.524;5.080;2023-04-19T09:58:17;6.82;;;3.55;;
66342;SDS011;53144;51.524;5.080;2023-04-19T10:00:44;5.85;;;3.40;;
66342;SDS011;53144;51.524;5.080;2023-04-19T10:03:12;12.70;;;3.80;;
66342;SDS011;53144;51.524;5.080;2023-04-19T10:05:38;7.85;;;3.58;;
66342;SDS011;53144;51.524;5.080;2023-04-19T10:08:06;11.88;;;3.25;;
66342;SDS011;53144;51.524;5.080;2023-04-19T10:10:32;5.38;;;3.25;;
66342;SDS011;53144;51.524;5.080;2023-04-19T10:12:58;4.50;;;3.10;;
66342;SDS011;53144;51.524;5.080;2023-04-19T10:15:26;8.63;;;2.97;;
66342;SDS011;53144;51.524;5.080;2023-04-19T10:17:54;4.75;;;3.13;;
66342;SDS011;53144;51.524;5.080;2023-04-19T10:20:22;4.07;;;2.95;;
66342;SDS011;53144;51.524;5.080;2023-04-19T10:22:50;5.18;;;3.20;;
66342;SDS011;53144;51.524;5.080;2023-04-19T10:25:15;4.30;;;3.05;;
66342;SDS011;53144;51.524;5.080;2023-04-19T10:27:42;11.18;;;3.10;;
66342;SDS011;53144;51.524;5.080;2023-04-19T10:30:19;5.45;;;2.90;;
66342;SDS011;53144;51.524;5.080;2023-04-19T10:32:46;6.85;;;2.65;;
66342;SDS011;53144;51.524;5.080;2023-04-19T10:35:21;3.90;;;2.67;;
66342;SDS011;53144;51.524;5.080;2023-04-19T10:38:11;7.68;;;2.83;;
66342;SDS011;53144;51.524;5.080;2023-04-19T10:45:54;2.83;;;2.45;;
66342;SDS011;53144;51.524;5.080;2023-04-19T10:51:12;4.22;;;2.72;;
66342;SDS011;53144;51.524;5.080;2023-04-19T10:53:49;3.40;;;2.60;;
66342;SDS011;53144;51.524;5.080;2023-04-19T10:56:19;4.65;;;2.72;;
66342;SDS011;53144;51.524;5.080;2023-04-19T11:04:08;3.47;;;2.47;;
66342;SDS011;53144;51.524;5.080;2023-04-19T11:09:25;4.25;;;2.40;;
66342;SDS011;53144;51.524;5.080;2023-04-19T11:11:56;4.78;;;2.15;;
66342;SDS011;53144;51.524;5.080;2023-04-19T11:14:23;3.38;;;2.13;;
66342;SDS011;53144;51.524;5.080;2023-04-19T11:16:49;3.88;;;2.35;;
66342;SDS011;53144;51.524;5.080;2023-04-19T11:19:15;4.70;;;1.85;;
66342;SDS011;53144;51.524;5.080;2023-04-19T11:21:41;3.42;;;1.70;;
66342;SDS011;53144;51.524;5.080;2023-04-19T11:24:09;2.92;;;1.65;;
66342;SDS011;53144;51.524;5.080;2023-04-19T11:26:36;3.00;;;1.70;;
66342;SDS011;53144;51.524;5.080;2023-04-19T11:29:02;3.58;;;1.75;;
66342;SDS011;53144;51.524;5.080;2023-04-19T11:31:30;3.85;;;1.73;;
66342;SDS011;53144;51.524;5.080;2023-04-19T11:33:57;4.13;;;1.90;;
66342;SDS011;53144;51.524;5.080;2023-04-19T11:36:24;3.63;;;2.20;;
66342;SDS011;53144;51.524;5.080;2023-04-19T11:38:50;4.93;;;2.00;;
66342;SDS011;53144;51.524;5.080;2023-04-19T11:41:16;2.50;;;1.90;;
66342;SDS011;53144;51.524;5.080;2023-04-19T11:43:42;3.90;;;1.92;;
66342;SDS011;53144;51.524;5.080;2023-04-19T11:46:09;3.80;;;1.80;;
66342;SDS011;53144;51.524;5.080;2023-04-19T11:48:48;5.80;;;2.17;;
66342;SDS011;53144;51.524;5.080;2023-04-19T11:51:16;2.33;;;1.60;;
66342;SDS011;53144;51.524;5.080;2023-04-19T11:53:41;6.00;;;2.20;;
66342;SDS011;53144;51.524;5.080;2023-04-19T11:56:07;6.53;;;1.85;;
66342;SDS011;53144;51.524;5.080;2023-04-19T11:58:38;5.72;;;2.38;;
66342;SDS011;53144;51.524;5.080;2023-04-19T12:01:18;4.65;;;1.92;;
66342;SDS011;53144;51.524;5.080;2023-04-19T12:03:46;6.07;;;2.30;;
66342;SDS011;53144;51.524;5.080;2023-04-19T12:06:15;3.00;;;1.90;;
66342;SDS011;53144;51.524;5.080;2023-04-19T12:08:48;4.70;;;1.83;;
66342;SDS011;53144;51.524;5.080;2023-04-19T12:11:15;8.07;;;2.03;;
66342;SDS011;53144;51.524;5.080;2023-04-19T12:13:43;5.40;;;1.80;;
66342;SDS011;53144;51.524;5.080;2023-04-19T12:16:08;8.38;;;2.30;;
66342;SDS011;53144;51.524;5.080;2023-04-19T12:18:41;3.67;;;1.90;;
66342;SDS011;53144;51.524;5.080;2023-04-19T12:21:23;4.10;;;1.83;;
66342;SDS011;53144;51.524;5.080;2023-04-19T12:23:57;4.88;;;2.22;;
66342;SDS011;53144;51.524;5.080;2023-04-19T12:26:28;2.90;;;2.08;;
66342;SDS011;53144;51.524;5.080;2023-04-19T12:28:54;4.15;;;2.30;;
66342;SDS011;53144;51.524;5.080;2023-04-19T12:31:21;6.57;;;2.38;;
66342;SDS011;53144;51.524;5.080;2023-04-19T12:33:47;2.35;;;1.92;;
66342;SDS011;53144;51.524;5.080;2023-04-19T12:36:13;1.88;;;1.77;;
66342;SDS011;53144;51.524;5.080;2023-04-19T12:38:38;5.55;;;2.20;;
66342;SDS011;53144;51.524;5.080;2023-04-19T12:41:04;3.72;;;2.47;;
66342;SDS011;53144;51.524;5.080;2023-04-19T12:43:30;4.55;;;2.15;;
66342;SDS011;53144;51.524;5.080;2023-04-19T12:45:56;5.43;;;2.17;;
66342;SDS011;53144;51.524;5.080;2023-04-19T12:48:22;4.82;;;2.03;;
66342;SDS011;53144;51.524;5.080;2023-04-19T12:50:47;3.22;;;1.70;;
66342;SDS011;53144;51.524;5.080;2023-04-19T12:53:13;2.63;;;2.08;;
66342;SDS011;53144;51.524;5.080;2023-04-19T12:55:38;4.18;;;2.00;;
66342;SDS011;53144;51.524;5.080;2023-04-19T12:58:04;3.17;;;1.77;;
66342;SDS011;53144;51.524;5.080;2023-04-19T13:00:30;2.78;;;2.05;;
66342;SDS011;53144;51.524;5.080;2023-04-19T13:02:55;1.90;;;1.80;;
66342;SDS011;53144;51.524;5.080;2023-04-19T13:05:20;4.35;;;2.08;;
66342;SDS011;53144;51.524;5.080;2023-04-19T13:07:46;2.25;;;2.00;;
66342;SDS011;53144;51.524;5.080;2023-04-19T13:10:11;4.93;;;1.98;;
66342;SDS011;53144;51.524;5.080;2023-04-19T13:12:37;4.15;;;1.92;;
66342;SDS011;53144;51.524;5.080;2023-04-19T13:15:03;4.63;;;2.10;;
66342;SDS011;53144;51.524;5.080;2023-04-19T13:17:29;1.98;;;1.77;;
66342;SDS011;53144;51.524;5.080;2023-04-19T13:19:54;5.95;;;2.05;;
66342;SDS011;53144;51.524;5.080;2023-04-19T13:22:20;2.22;;;1.90;;
66342;SDS011;53144;51.524;5.080;2023-04-19T13:24:46;2.67;;;2.08;;
66342;SDS011;53144;51.524;5.080;2023-04-19T13:27:11;3.75;;;2.03;;
66342;SDS011;53144;51.524;5.080;2023-04-19T13:29:37;2.40;;;1.95;;
66342;SDS011;53144;51.524;5.080;2023-04-19T13:32:02;2.20;;;1.98;;
66342;SDS011;53144;51.524;5.080;2023-04-19T13:34:31;3.85;;;1.92;;
66342;SDS011;53144;51.524;5.080;2023-04-19T13:36:56;2.30;;;1.88;;
66342;SDS011;53144;51.524;5.080;2023-04-19T13:39:22;3.72;;;1.90;;
66342;SDS011;53144;51.524;5.080;2023-04-19T13:41:47;5.15;;;2.10;;
66342;SDS011;53144;51.524;5.080;2023-04-19T13:44:13;4.82;;;2.28;;
66342;SDS011;53144;51.524;5.080;2023-04-19T13:46:38;5.60;;;2.22;;
66342;SDS011;53144;51.524;5.080;2023-04-19T13:49:03;2.97;;;2.08;;
66342;SDS011;53144;51.524;5.080;2023-04-19T13:51:29;2.97;;;1.92;;
66342;SDS011;53144;51.524;5.080;2023-04-19T13:53:55;3.75;;;2.00;;
66342;SDS011;53144;51.524;5.080;2023-04-19T13:56:20;5.97;;;2.10;;
66342;SDS011;53144;51.524;5.080;2023-04-19T13:58:46;4.05;;;1.90;;
66342;SDS011;53144;51.524;5.080;2023-04-19T14:01:11;7.93;;;2.00;;
66342;SDS011;53144;51.524;5.080;2023-04-19T14:03:37;4.93;;;2.35;;
66342;SDS011;53144;51.524;5.080;2023-04-19T14:06:02;3.47;;;2.05;;
66342;SDS011;53144;51.524;5.080;2023-04-19T14:08:28;3.38;;;1.83;;
66342;SDS011;53144;51.524;5.080;2023-04-19T14:10:53;4.72;;;2.15;;
66342;SDS011;53144;51.524;5.080;2023-04-19T14:13:19;3.13;;;2.20;;
66342;SDS011;53144;51.524;5.080;2023-04-19T14:15:44;3.40;;;2.00;;
66342;SDS011;53144;51.524;5.080;2023-04-19T14:18:10;5.80;;;2.25;;
66342;SDS011;53144;51.524;5.080;2023-04-19T14:20:35;4.38;;;2.50;;
66342;SDS011;53144;51.524;5.080;2023-04-19T14:23:01;4.35;;;1.95;;
66342;SDS011;53144;51.524;5.080;2023-04-19T14:25:26;4.45;;;2.22;;
66342;SDS011;53144;51.524;5.080;2023-04-19T14:27:52;5.68;;;2.47;;
66342;SDS011;53144;51.524;5.080;2023-04-19T14:30:17;2.65;;;2.10;;
66342;SDS011;53144;51.524;5.080;2023-04-19T14:32:43;3.83;;;2.10;;
66342;SDS011;53144;51.524;5.080;2023-04-19T14:35:09;2.20;;;2.00;;
66342;SDS011;53144;51.524;5.080;2023-04-19T14:37:37;5.28;;;2.20;;
66342;SDS011;53144;51.524;5.080;2023-04-19T14:40:03;4.53;;;2.30;;
66342;SDS011;53144;51.524;5.080;2023-04-19T14:42:29;7.20;;;2.80;;
66342;SDS011;53144;51.524;5.080;2023-04-19T14:44:54;6.05;;;2.75;;
66342;SDS011;53144;51.524;5.080;2023-04-19T14:47:19;4.32;;;2.35;;
66342;SDS011;53144;51.524;5.080;2023-04-19T14:49:45;4.47;;;2.67;;
66342;SDS011;53144;51.524;5.080;2023-04-19T14:52:11;7.35;;;2.60;;
66342;SDS011;53144;51.524;5.080;2023-04-19T14:54:36;6.95;;;2.55;;
66342;SDS011;53144;51.524;5.080;2023-04-19T14:57:01;8.70;;;3.30;;
66342;SDS011;53144;51.524;5.080;2023-04-19T14:59:27;5.57;;;2.85;;
66342;SDS011;53144;51.524;5.080;2023-04-19T15:01:54;14.75;;;3.08;;
66342;SDS011;53144;51.524;5.080;2023-04-19T15:04:19;6.78;;;2.90;;
66342;SDS011;53144;51.524;5.080;2023-04-19T15:06:45;4.03;;;2.83;;
66342;SDS011;53144;51.524;5.080;2023-04-19T15:09:10;3.72;;;2.83;;
66342;SDS011;53144;51.524;5.080;2023-04-19T15:11:35;6.38;;;3.03;;
66342;SDS011;53144;51.524;5.080;2023-04-19T15:14:01;4.13;;;2.78;;
66342;SDS011;53144;51.524;5.080;2023-04-19T15:16:26;4.47;;;2.83;;
66342;SDS011;53144;51.524;5.080;2023-04-19T15:18:52;4.47;;;2.58;;
66342;SDS011;53144;51.524;5.080;2023-04-19T15:21:18;5.65;;;2.88;;
66342;SDS011;53144;51.524;5.080;2023-04-19T15:23:44;6.30;;;2.90;;
66342;SDS011;53144;51.524;5.080;2023-04-19T15:26:09;7.35;;;2.85;;
66342;SDS011;53144;51.524;5.080;2023-04-19T15:28:35;4.47;;;2.63;;
66342;SDS011;53144;51.524;5.080;2023-04-19T15:31:04;7.13;;;3.25;;
66342;SDS011;53144;51.524;5.080;2023-04-19T15:33:30;5.30;;;2.75;;
66342;SDS011;53144;51.524;5.080;2023-04-19T15:35:56;7.40;;;2.63;;
66342;SDS011;53144;51.524;5.080;2023-04-19T15:38:23;2.75;;;2.42;;
66342;SDS011;53144;51.524;5.080;2023-04-19T15:40:55;3.92;;;2.70;;
66342;SDS011;53144;51.524;5.080;2023-04-19T15:43:22;5.88;;;2.60;;
66342;SDS011;53144;51.524;5.080;2023-04-19T15:45:48;3.65;;;2.90;;
66342;SDS011;53144;51.524;5.080;2023-04-19T15:48:14;6.03;;;3.22;;
66342;SDS011;53144;51.524;5.080;2023-04-19T15:50:39;4.20;;;2.80;;
66342;SDS011;53144;51.524;5.080;2023-04-19T15:53:05;6.85;;;3.00;;
66342;SDS011;53144;51.524;5.080;2023-04-19T15:55:31;4.38;;;2.53;;
66342;SDS011;53144;51.524;5.080;2023-04-19T15:57:58;4.00;;;2.67;;
66342;SDS011;53144;51.524;5.080;2023-04-19T16:00:27;4.65;;;2.60;;
66342;SDS011;53144;51.524;5.080;2023-04-19T16:02:52;3.33;;;2.67;;
66342;SDS011;53144;51.524;5.080;2023-04-19T16:05:18;4.18;;;2.45;;
66342;SDS011;53144;51.524;5.080;2023-04-19T16:07:43;3.55;;;2.78;;
66342;SDS011;53144;51.524;5.080;2023-04-19T16:10:09;4.70;;;3.03;;
66342;SDS011;53144;51.524;5.080;2023-04-19T16:12:35;4.18;;;2.70;;
66342;SDS011;53144;51.524;5.080;2023-04-19T16:15:01;4.10;;;2.63;;
66342;SDS011;53144;51.524;5.080;2023-04-19T16:17:26;4.38;;;2.67;;
66342;SDS011;53144;51.524;5.080;2023-04-19T16:19:52;6.22;;;2.67;;
66342;SDS011;53144;51.524;5.080;2023-04-19T16:22:17;10.55;;;2.83;;
66342;SDS011;53144;51.524;5.080;2023-04-19T16:24:42;2.72;;;2.40;;
66342;SDS011;53144;51.524;5.080;2023-04-19T16:27:10;3.45;;;2.90;;
66342;SDS011;53144;51.524;5.080;2023-04-19T16:29:36;3.67;;;2.75;;
66342;SDS011;53144;51.524;5.080;2023-04-19T16:32:02;4.50;;;2.80;;
66342;SDS011;53144;51.524;5.080;2023-04-19T16:34:28;5.35;;;3.10;;
66342;SDS011;53144;51.524;5.080;2023-04-19T16:36:53;2.75;;;2.45;;
66342;SDS011;53144;51.524;5.080;2023-04-19T16:39:19;6.50;;;2.53;;
66342;SDS011;53144;51.524;5.080;2023-04-19T16:41:44;5.80;;;2.75;;
66342;SDS011;53144;51.524;5.080;2023-04-19T16:44:10;5.63;;;2.65;;
66342;SDS011;53144;51.524;5.080;2023-04-19T16:46:35;4.25;;;2.80;;
66342;SDS011;53144;51.524;5.080;2023-04-19T16:49:01;4.25;;;2.78;;
66342;SDS011;53144;51.524;5.080;2023-04-19T16:51:26;5.82;;;2.90;;
66342;SDS011;53144;51.524;5.080;2023-04-19T16:53:52;5.18;;;2.83;;
66342;SDS011;53144;51.524;5.080;2023-04-19T16:56:17;3.55;;;2.80;;
66342;SDS011;53144;51.524;5.080;2023-04-19T16:58:43;5.60;;;2.90;;
66342;SDS011;53144;51.524;5.080;2023-04-19T17:01:10;5.70;;;3.08;;
66342;SDS011;53144;51.524;5.080;2023-04-19T17:03:35;3.70;;;3.05;;
66342;SDS011;53144;51.524;5.080;2023-04-19T17:06:01;6.75;;;2.88;;
66342;SDS011;53144;51.524;5.080;2023-04-19T17:08:26;5.05;;;2.90;;
66342;SDS011;53144;51.524;5.080;2023-04-19T17:10:52;8.52;;;3.13;;
66342;SDS011;53144;51.524;5.080;2023-04-19T17:13:17;5.88;;;3.30;;
66342;SDS011;53144;51.524;5.080;2023-04-19T17:15:42;6.22;;;3.17;;
66342;SDS011;53144;51.524;5.080;2023-04-19T17:18:08;4.63;;;3.03;;
66342;SDS011;53144;51.524;5.080;2023-04-19T17:20:33;4.55;;;2.97;;
66342;SDS011;53144;51.524;5.080;2023-04-19T17:22:59;6.03;;;2.83;;
66342;SDS011;53144;51.524;5.080;2023-04-19T17:25:25;5.30;;;3.00;;
66342;SDS011;53144;51.524;5.080;2023-04-19T17:27:50;8.70;;;2.60;;
66342;SDS011;53144;51.524;5.080;2023-04-19T17:30:15;4.68;;;2.92;;
66342;SDS011;53144;51.524;5.080;2023-04-19T17:32:41;4.72;;;3.13;;
66342;SDS011;53144;51.524;5.080;2023-04-19T17:35:06;7.53;;;2.90;;
66342;SDS011;53144;51.524;5.080;2023-04-19T17:37:32;5.43;;;2.80;;
66342;SDS011;53144;51.524;5.080;2023-04-19T17:39:57;5.13;;;2.58;;
66342;SDS011;53144;51.524;5.080;2023-04-19T17:42:24;4.88;;;2.70;;
66342;SDS011;53144;51.524;5.080;2023-04-19T17:47:15;7.45;;;2.60;;
66342;SDS011;53144;51.524;5.080;2023-04-19T17:49:43;5.18;;;2.40;;
66342;SDS011;53144;51.524;5.080;2023-04-19T17:52:10;4.10;;;2.55;;
66342;SDS011;53144;51.524;5.080;2023-04-19T17:57:01;2.87;;;2.40;;
66342;SDS011;53144;51.524;5.080;2023-04-19T18:01:52;3.05;;;2.28;;
66342;SDS011;53144;51.524;5.080;2023-04-19T18:04:17;3.20;;;2.50;;
66342;SDS011;53144;51.524;5.080;2023-04-19T18:06:43;3.05;;;2.30;;
66342;SDS011;53144;51.524;5.080;2023-04-19T18:11:36;5.88;;;2.60;;
66342;SDS011;53144;51.524;5.080;2023-04-19T18:16:26;2.75;;;2.40;;
66342;SDS011;53144;51.524;5.080;2023-04-19T18:21:17;4.07;;;2.42;;
66342;SDS011;53144;51.524;5.080;2023-04-19T18:23:42;4.15;;;2.20;;
66342;SDS011;53144;51.524;5.080;2023-04-19T18:28:33;2.88;;;2.20;;
66342;SDS011;53144;51.524;5.080;2023-04-19T18:31:00;2.30;;;2.10;;
66342;SDS011;53144;51.524;5.080;2023-04-19T18:35:51;3.45;;;2.00;;
66342;SDS011;53144;51.524;5.080;2023-04-19T18:38:18;2.75;;;2.20;;
66342;SDS011;53144;51.524;5.080;2023-04-19T18:40:44;2.42;;;1.95;;
66342;SDS011;53144;51.524;5.080;2023-04-19T18:45:35;2.72;;;1.92;;